Time;durP1;ratioP1;P1;durP2;ratioP2;P2;SDS_P1;SDS_P2;PMS_P1;PMS_P2;Temp;Humidity;BMP_temperature;BMP_pressure;BME280_temperature;BME280_humidity;BME280_pressure;Samples;Min_cycle;Max_cycle;Signal;HPM_P1;HPM_P2
2023/08/25 00:02:30;;;;;;;;;;;20.30;99.90;;;;;;2603765;54;20091;31
2023/08/25 00:05:04;;;;;;;6.65;5.63;;;20.40;99.90;;;;;;2603787;54;19954;31
2023/08/25 00:07:42;;;;;;;7.75;6.90;;;20.30;99.90;;;;;;2603526;54;20030;31
2023/08/25 00:10:16;;;;;;;7.28;6.25;;;20.30;99.90;;;;;;2621760;46;20880;31
2023/08/25 00:12:50;;;;;;;7.05;5.35;;;20.30;99.90;;;;;;2603602;54;20101;31
2023/08/25 00:15:25;;;;;;;10.93;5.95;;;20.30;99.90;;;;;;2702106;39;21632;31
2023/08/25 00:18:00;;;;;;;7.37;6.37;;;20.30;99.90;;;;;;2621902;46;20079;31
2023/08/25 00:20:36;;;;;;;8.75;6.15;;;20.20;99.90;;;;;;2621870;46;20096;31
2023/08/25 00:23:13;;;;;;;8.77;5.88;;;20.20;99.90;;;;;;2622118;46;20046;31
2023/08/25 00:25:47;;;;;;;8.50;6.53;;;20.20;99.90;;;;;;2603301;54;20041;31
2023/08/25 00:28:21;;;;;;;8.70;5.60;;;20.20;99.90;;;;;;2603432;54;21570;31
2023/08/25 00:30:56;;;;;;;9.57;6.72;;;20.10;99.90;;;;;;2603603;54;20075;31
2023/08/25 00:33:30;;;;;;;5.70;5.00;;;20.10;99.90;;;;;;2603620;54;20038;31
2023/08/25 00:36:04;;;;;;;6.13;5.30;;;20.10;99.90;;;;;;2603530;54;20031;31
2023/08/25 00:38:42;;;;;;;7.80;6.40;;;20.10;99.90;;;;;;2603536;54;20119;31
2023/08/25 00:41:16;;;;;;;8.85;5.30;;;20.10;99.90;;;;;;2603645;54;20053;31
2023/08/25 00:43:50;;;;;;;10.82;5.75;;;20.10;99.90;;;;;;2702073;39;21695;31
2023/08/25 00:46:25;;;;;;;6.85;5.50;;;20.10;99.90;;;;;;2603386;54;20050;31
2023/08/25 00:49:00;;;;;;;6.93;4.82;;;20.10;99.90;;;;;;2603177;54;20027;31
2023/08/25 00:51:35;;;;;;;7.07;5.35;;;20.10;99.90;;;;;;2603445;54;19994;31
2023/08/25 00:54:13;;;;;;;7.40;4.75;;;20.10;99.90;;;;;;2603511;54;20026;31
2023/08/25 00:56:47;;;;;;;7.70;5.32;;;20.10;99.90;;;;;;2603236;54;20034;31
2023/08/25 00:59:22;;;;;;;8.05;5.55;;;20.10;99.90;;;;;;2621654;46;20785;31
2023/08/25 01:01:56;;;;;;;8.03;5.27;;;20.10;99.90;;;;;;2603285;54;20026;31
2023/08/25 01:04:31;;;;;;;6.10;5.25;;;20.10;99.90;;;;;;2603238;54;20916;31
2023/08/25 01:07:05;;;;;;;5.30;4.80;;;20.10;99.90;;;;;;2603451;54;20857;31
2023/08/25 01:09:43;;;;;;;5.40;4.63;;;20.00;99.90;;;;;;2603300;54;20933;31
2023/08/25 01:12:27;;;;;;;6.15;5.35;;;20.10;99.90;;;;;;2603207;54;20057;31
2023/08/25 01:15:05;;;;;;;7.20;5.40;;;20.00;99.90;;;;;;2603508;54;20144;31
2023/08/25 01:17:42;;;;;;;8.50;5.75;;;20.00;99.90;;;;;;2621710;46;20030;31
2023/08/25 01:20:16;;;;;;;6.75;5.38;;;20.00;99.90;;;;;;2603408;54;20027;31
2023/08/25 01:22:53;;;;;;;7.25;5.60;;;20.00;99.90;;;;;;2603229;54;20897;31
2023/08/25 01:25:31;;;;;;;7.40;6.10;;;20.00;99.90;;;;;;2621707;46;20032;31
2023/08/25 01:28:07;;;;;;;8.18;5.57;;;20.00;99.90;;;;;;2603178;54;21023;31
2023/08/25 01:30:43;;;;;;;6.55;5.15;;;19.90;99.90;;;;;;2603285;54;20099;31
2023/08/25 01:33:19;;;;;;;6.63;5.35;;;20.00;99.90;;;;;;2603285;54;20037;31
2023/08/25 01:35:59;;;;;;;9.10;6.50;;;20.00;99.90;;;;;;2603625;54;20030;31
2023/08/25 01:38:36;;;;;;;6.60;5.00;;;20.00;99.90;;;;;;2621803;46;20276;31
2023/08/25 01:41:14;;;;;;;7.00;5.38;;;20.00;99.90;;;;;;2603231;54;20755;31
2023/08/25 01:43:50;;;;;;;7.72;5.30;;;20.00;99.90;;;;;;2603200;54;20027;31
2023/08/25 01:46:24;;;;;;;8.82;6.13;;;19.90;99.90;;;;;;2603168;54;20034;31
2023/08/25 01:49:00;;;;;;;7.50;6.10;;;19.90;99.90;;;;;;2603099;54;20906;31
2023/08/25 01:51:34;;;;;;;8.25;6.95;;;19.90;99.90;;;;;;2621409;47;20092;31
2023/08/25 01:54:09;;;;;;;6.95;6.25;;;19.90;99.90;;;;;;2603154;54;20029;31
2023/08/25 01:56:46;;;;;;;8.40;6.10;;;19.90;99.90;;;;;;2603299;54;20026;31
2023/08/25 01:59:20;;;;;;;8.98;6.28;;;19.90;99.90;;;;;;2603023;54;21110;31
2023/08/25 02:01:52;;;;;;;7.60;6.65;;;19.90;99.90;;;;;;2721023;39;21076;31
2023/08/25 02:04:27;;;;;;;7.55;6.85;;;19.80;99.90;;;;;;2604088;54;20030;31
2023/08/25 02:07:03;;;;;;;10.20;6.90;;;19.80;99.90;;;;;;2603790;54;20851;31
2023/08/25 02:09:38;;;;;;;7.05;6.00;;;19.90;99.90;;;;;;2603893;54;20081;31
2023/08/25 02:12:15;;;;;;;7.68;5.95;;;19.80;99.90;;;;;;2603856;54;20843;31
2023/08/25 02:14:49;;;;;;;7.63;6.73;;;19.80;99.90;;;;;;2622588;46;20038;31
2023/08/25 02:17:24;;;;;;;11.10;7.10;;;19.80;99.90;;;;;;2603838;54;20115;31
2023/08/25 02:19:58;;;;;;;11.23;7.50;;;19.80;99.90;;;;;;2604028;54;20857;31
2023/08/25 02:22:33;;;;;;;11.20;7.05;;;19.80;99.90;;;;;;2603853;54;20081;31
2023/08/25 02:25:09;;;;;;;9.88;6.68;;;19.80;99.90;;;;;;2622743;46;20958;31
2023/08/25 02:27:46;;;;;;;9.13;6.53;;;19.70;99.90;;;;;;2603784;54;20033;31
2023/08/25 02:30:20;;;;;;;8.27;7.47;;;19.70;99.90;;;;;;2603798;54;20805;31
2023/08/25 02:32:55;;;;;;;7.97;6.03;;;19.70;99.90;;;;;;2603875;54;20094;31
2023/08/25 02:35:30;;;;;;;7.22;6.53;;;19.70;99.90;;;;;;2622471;46;20042;31
2023/08/25 02:38:06;;;;;;;8.93;7.72;;;19.70;99.90;;;;;;2622293;46;20042;31
2023/08/25 02:40:42;;;;;;;10.50;7.60;;;19.70;99.90;;;;;;2604079;54;20840;31
2023/08/25 02:43:19;;;;;;;11.95;8.20;;;19.70;99.90;;;;;;2603769;54;20941;31
2023/08/25 02:45:53;;;;;;;12.63;7.68;;;19.70;99.90;;;;;;2603837;54;20837;31
2023/08/25 02:48:28;;;;;;;9.60;8.15;;;19.70;99.90;;;;;;2603777;54;20026;31
2023/08/25 02:51:03;;;;;;;12.05;7.68;;;19.70;99.90;;;;;;2622024;46;20611;31
2023/08/25 02:53:38;;;;;;;9.25;7.45;;;19.70;99.90;;;;;;2622460;46;20801;31
2023/08/25 02:56:13;;;;;;;7.70;7.00;;;19.70;99.90;;;;;;2603899;54;20058;31
2023/08/25 02:58:51;;;;;;;7.97;7.20;;;19.70;99.90;;;;;;2622388;46;20297;31
2023/08/25 03:01:25;;;;;;;11.60;7.88;;;19.70;99.90;;;;;;2621436;46;20027;31
2023/08/25 03:03:59;;;;;;;9.63;7.73;;;19.80;99.90;;;;;;2621821;46;20082;31
2023/08/25 03:06:33;;;;;;;15.60;8.60;;;19.80;99.90;;;;;;2603894;54;20032;31
2023/08/25 03:09:09;;;;;;;9.60;6.57;;;19.80;99.90;;;;;;2603677;54;20881;31
2023/08/25 03:11:44;;;;;;;8.43;7.57;;;19.80;99.90;;;;;;2603844;54;20033;31
2023/08/25 03:14:26;;;;;;;;;;;19.80;99.90;;;;;;2603784;54;20022;31
2023/08/25 03:17:01;;;;;;;13.15;7.32;;;19.80;99.90;;;;;;2603755;54;19934;31
2023/08/25 03:19:37;;;;;;;14.48;9.70;;;19.80;99.90;;;;;;2603536;54;20042;31
2023/08/25 03:22:12;;;;;;;;;;;19.80;99.90;;;;;;2603771;54;20057;31
2023/08/25 03:24:46;;;;;;;11.88;9.57;;;19.80;99.90;;;;;;2622114;46;19948;31
2023/08/25 03:27:21;;;;;;;11.07;9.43;;;19.80;99.90;;;;;;2603507;54;20030;31
2023/08/25 03:29:59;;;;;;;12.02;9.50;;;19.80;99.90;;;;;;2603659;54;20029;31
2023/08/25 03:32:36;;;;;;;13.95;9.45;;;19.80;99.90;;;;;;2603629;54;20838;31
2023/08/25 03:35:11;;;;;;;12.70;10.55;;;19.80;99.90;;;;;;2603720;54;20027;31
2023/08/25 03:37:46;;;;;;;10.17;9.00;;;19.70;99.90;;;;;;2603645;54;20027;31
2023/08/25 03:40:22;;;;;;;9.90;7.63;;;19.70;99.90;;;;;;2603670;54;20061;31
2023/08/25 03:42:58;;;;;;;13.93;9.45;;;19.70;99.90;;;;;;2603725;54;20831;31
2023/08/25 03:45:37;;;;;;;11.60;8.57;;;19.70;99.90;;;;;;2603762;54;20038;31
2023/08/25 03:48:11;;;;;;;13.43;9.40;;;19.70;99.90;;;;;;2603527;54;20033;31
2023/08/25 03:50:49;;;;;;;9.98;8.98;;;19.70;99.90;;;;;;2603817;54;20037;31
2023/08/25 03:53:23;;;;;;;10.93;9.80;;;19.70;99.90;;;;;;2603496;54;20026;31
2023/08/25 03:55:58;;;;;;;13.07;9.75;;;19.70;99.90;;;;;;2603456;54;20085;31
2023/08/25 03:58:33;;;;;;;17.17;10.53;;;19.70;99.90;;;;;;2603522;54;20050;31
2023/08/25 04:01:11;;;;;;;17.37;10.53;;;19.70;99.90;;;;;;2621768;46;20353;31
2023/08/25 04:03:45;;;;;;;10.38;9.35;;;19.70;99.90;;;;;;2621916;46;20049;31
2023/08/25 04:06:20;;;;;;;12.63;10.30;;;19.60;99.90;;;;;;2603525;54;20033;31
2023/08/25 04:08:55;;;;;;;11.25;10.13;;;19.70;99.90;;;;;;2603438;54;20029;31
2023/08/25 04:11:29;;;;;;;13.55;11.20;;;19.60;99.90;;;;;;2603658;54;20034;31
2023/08/25 04:14:04;;;;;;;12.18;10.35;;;19.60;99.90;;;;;;2603482;54;20034;31
2023/08/25 04:16:45;;;;;;;12.48;11.18;;;19.60;99.90;;;;;;2603654;54;20031;31
2023/08/25 04:19:21;;;;;;;15.10;12.60;;;19.60;99.90;;;;;;2603554;54;20050;31
2023/08/25 04:21:59;;;;;;;12.95;10.55;;;19.50;99.90;;;;;;2603456;54;19934;31
2023/08/25 04:24:33;;;;;;;13.85;11.70;;;19.50;99.90;;;;;;2603437;54;20038;31
2023/08/25 04:27:09;;;;;;;12.45;10.40;;;19.50;99.90;;;;;;2603498;54;20050;31
2023/08/25 04:29:45;;;;;;;12.93;10.57;;;19.60;99.90;;;;;;2603434;54;20023;31
2023/08/25 04:32:23;;;;;;;12.95;11.65;;;19.50;99.90;;;;;;2621619;46;20074;31
2023/08/25 04:34:57;;;;;;;13.25;9.85;;;19.60;99.90;;;;;;2603433;54;20030;31
2023/08/25 04:37:32;;;;;;;18.77;11.18;;;19.60;99.90;;;;;;2603648;54;20029;31
2023/08/25 04:40:07;;;;;;;14.80;12.40;;;19.60;99.90;;;;;;2621519;46;20026;31
2023/08/25 04:42:42;;;;;;;14.10;9.63;;;19.60;99.90;;;;;;2621497;46;20077;31
2023/08/25 04:45:16;;;;;;;14.57;12.35;;;19.60;99.90;;;;;;2603536;54;20882;31
2023/08/25 04:47:57;;;;;;;14.03;11.93;;;19.60;99.90;;;;;;2603462;54;20846;31
2023/08/25 04:50:31;;;;;;;12.82;11.50;;;19.60;99.90;;;;;;2603385;54;20036;31
2023/08/25 04:53:07;;;;;;;13.60;11.80;;;19.60;99.90;;;;;;2603601;54;20824;31
2023/08/25 04:55:42;;;;;;;10.35;8.40;;;19.60;99.90;;;;;;2603488;54;20353;31
2023/08/25 04:58:17;;;;;;;14.47;12.60;;;19.70;99.90;;;;;;2720533;39;21467;31
2023/08/25 05:00:52;;;;;;;12.10;10.20;;;19.70;99.90;;;;;;2603531;54;20030;31
2023/08/25 05:03:31;;;;;;;13.80;11.60;;;19.60;99.90;;;;;;2603434;54;20026;31
2023/08/25 05:06:07;;;;;;;14.70;11.40;;;19.70;99.90;;;;;;2622049;46;20057;31
2023/08/25 05:08:42;;;;;;;12.95;10.27;;;19.70;99.90;;;;;;2621561;46;20848;31
2023/08/25 05:11:18;;;;;;;11.82;10.57;;;19.80;99.90;;;;;;2603218;54;20029;31
2023/08/25 05:13:52;;;;;;;13.50;11.98;;;19.80;99.90;;;;;;2603380;54;20034;31
2023/08/25 05:16:27;;;;;;;14.52;11.27;;;19.80;99.90;;;;;;2603273;54;20893;31
2023/08/25 05:19:11;;;;;;;13.65;11.40;;;19.80;99.90;;;;;;2603302;54;20033;31
2023/08/25 05:21:46;;;;;;;12.50;11.27;;;19.90;99.90;;;;;;2603321;54;20034;31
2023/08/25 05:24:22;;;;;;;12.65;11.35;;;19.90;99.90;;;;;;2603267;54;20069;31
2023/08/25 05:26:58;;;;;;;11.32;9.95;;;19.90;99.90;;;;;;2603245;54;20900;31
2023/08/25 05:29:33;;;;;;;13.75;12.32;;;19.90;99.90;;;;;;2603344;54;20026;31
2023/08/25 05:32:18;;;;;;;12.55;11.25;;;20.00;99.90;;;;;;2621937;46;20897;31
2023/08/25 05:35:15;;;;;;;13.70;11.40;;;20.00;99.90;;;;;;2603088;54;20107;31
2023/08/25 05:37:54;;;;;;;13.60;10.40;;;20.10;99.90;;;;;;2603268;54;19941;31
2023/08/25 05:40:28;;;;;;;12.63;10.77;;;20.20;99.90;;;;;;2603184;54;20046;31
2023/08/25 05:43:03;;;;;;;12.33;10.57;;;20.30;99.90;;;;;;2603188;54;20026;31
2023/08/25 05:45:38;;;;;;;11.85;9.60;;;20.50;99.90;;;;;;2603331;54;20026;31
2023/08/25 05:48:13;;;;;;;11.13;9.37;;;20.60;99.90;;;;;;2603194;54;20030;31
2023/08/25 05:50:48;;;;;;;12.65;9.80;;;20.70;99.90;;;;;;2603244;54;20762;31
2023/08/25 05:53:26;;;;;;;12.30;10.07;;;20.80;99.90;;;;;;2603456;54;20048;31
2023/08/25 05:56:01;;;;;;;14.32;10.27;;;21.00;99.90;;;;;;2603401;54;20042;31
2023/08/25 05:58:35;;;;;;;10.80;8.85;;;21.10;99.90;;;;;;2621765;47;20042;31
2023/08/25 06:01:10;;;;;;;15.10;9.80;;;21.30;99.90;;;;;;2621843;47;20038;31
2023/08/25 06:03:46;;;;;;;15.00;8.63;;;21.60;99.90;;;;;;2603478;54;20030;31
2023/08/25 06:06:19;;;;;;;;;;;21.90;99.90;;;;;;2621754;47;20102;31
2023/08/25 06:08:56;;;;;;;13.80;8.15;;;22.10;99.90;;;;;;2602835;54;20791;31
2023/08/25 06:11:31;;;;;;;12.02;8.68;;;22.40;99.90;;;;;;2603162;54;20027;31
2023/08/25 06:14:05;;;;;;;12.80;8.25;;;22.60;99.90;;;;;;2603080;54;20927;31
2023/08/25 06:16:41;;;;;;;14.00;7.95;;;22.70;99.90;;;;;;2621884;47;20082;31
2023/08/25 06:19:15;;;;;;;;;;;22.90;99.90;;;;;;2603423;54;20847;31
2023/08/25 06:21:50;;;;;;;9.98;8.07;;;23.10;99.90;;;;;;2603100;54;20782;31
2023/08/25 06:24:27;;;;;;;11.95;7.50;;;23.30;99.90;;;;;;2602988;54;20057;31
2023/08/25 06:27:02;;;;;;;14.95;7.90;;;23.60;99.90;;;;;;2621672;47;20049;31
2023/08/25 06:29:36;;;;;;;14.15;8.25;;;23.90;99.90;;;;;;2621278;47;20835;31
2023/08/25 06:32:14;;;;;;;11.00;7.60;;;24.10;99.90;;;;;;2621830;47;20068;31
2023/08/25 06:34:51;;;;;;;9.30;7.22;;;24.40;99.90;;;;;;2621459;47;20080;31
2023/08/25 06:37:25;;;;;;;12.75;7.55;;;24.60;99.90;;;;;;2603227;54;20022;31
2023/08/25 06:40:05;;;;;;;11.25;6.70;;;24.80;99.90;;;;;;2603038;54;20046;31
2023/08/25 06:42:39;;;;;;;12.07;7.28;;;25.00;99.90;;;;;;2621221;47;20077;31
2023/08/25 06:45:14;;;;;;;9.90;7.03;;;25.20;99.90;;;;;;2603174;54;19941;31
2023/08/25 06:47:50;;;;;;;11.85;7.95;;;25.60;99.90;;;;;;2603078;54;20268;31
2023/08/25 06:50:25;;;;;;;13.40;7.25;;;25.80;99.90;;;;;;2621963;46;20082;31
2023/08/25 06:53:00;;;;;;;11.05;7.05;;;26.10;99.90;;;;;;2603901;54;20054;31
2023/08/25 06:55:39;;;;;;;15.38;7.22;;;26.30;99.90;;;;;;2603753;54;20028;31
2023/08/25 06:58:14;;;;;;;11.73;7.30;;;26.50;99.90;;;;;;2603684;54;20057;31
2023/08/25 07:00:50;;;;;;;10.27;6.85;;;26.60;99.90;;;;;;2720836;39;21489;31
2023/08/25 07:03:24;;;;;;;12.23;6.80;;;26.90;99.90;;;;;;2603815;54;20890;31
2023/08/25 07:06:00;;;;;;;10.60;6.80;;;27.10;99.90;;;;;;2603490;54;20863;31
2023/08/25 07:08:34;;;;;;;11.85;6.97;;;27.40;99.90;;;;;;2621935;46;20098;31
2023/08/25 07:11:12;;;;;;;10.07;7.13;;;27.80;99.90;;;;;;2603599;54;20884;31
2023/08/25 07:13:47;;;;;;;12.68;7.47;;;28.10;99.90;;;;;;2603837;54;20263;31
2023/08/25 07:16:21;;;;;;;8.70;5.80;;;28.40;99.90;;;;;;2603658;54;20053;31
2023/08/25 07:18:56;;;;;;;7.25;5.53;;;28.70;99.90;;;;;;2603585;54;20916;31
2023/08/25 07:21:31;;;;;;;10.80;5.70;;;29.00;99.90;;;;;;2603705;54;20870;31
2023/08/25 07:24:07;;;;;;;10.20;6.15;;;29.20;99.90;;;;;;2603803;54;20030;31
2023/08/25 07:26:43;;;;;;;;;;;29.30;99.90;;;;;;2622409;46;20061;31
2023/08/25 07:29:18;;;;;;;8.50;5.27;;;29.40;99.90;;;;;;2702162;39;21414;31
2023/08/25 07:31:55;;;;;;;7.35;5.50;;;29.60;99.90;;;;;;2603587;54;20045;31
2023/08/25 07:34:29;;;;;;;12.27;5.43;;;29.70;99.90;;;;;;2603813;54;20092;31
2023/08/25 07:37:05;;;;;;;8.15;5.88;;;29.90;99.90;;;;;;2603764;54;20030;31
2023/08/25 07:39:39;;;;;;;;;;;30.10;99.90;;;;;;2603956;54;20037;31
2023/08/25 07:42:16;;;;;;;8.32;5.70;;;30.20;99.90;;;;;;2603450;54;20736;31
2023/08/25 07:44:51;;;;;;;12.32;5.53;;;30.30;99.90;;;;;;2603756;54;20026;31
2023/08/25 07:47:25;;;;;;;7.60;5.10;;;30.40;99.90;;;;;;2603586;54;20029;31
2023/08/25 07:49:59;;;;;;;8.03;5.03;;;30.70;99.90;;;;;;2603487;54;20052;31
2023/08/25 07:52:33;;;;;;;8.70;5.28;;;30.90;99.90;;;;;;2603506;54;20037;31
2023/08/25 07:55:09;;;;;;;7.20;5.00;;;31.20;99.90;;;;;;2622108;46;20810;31
2023/08/25 07:57:46;;;;;;;10.60;5.30;;;31.30;99.90;;;;;;2603458;54;20031;31
2023/08/25 08:00:22;;;;;;;7.45;4.75;;;31.60;99.90;;;;;;2603540;54;20046;31
2023/08/25 08:02:57;;;;;;;7.10;4.83;;;31.70;99.90;;;;;;2603382;54;20026;31
2023/08/25 08:05:32;;;;;;;4.95;4.25;;;32.00;99.90;;;;;;2603475;54;20242;31
2023/08/25 08:08:09;;;;;;;8.18;4.95;;;32.10;99.90;;;;;;2603493;54;20033;31
2023/08/25 08:10:43;;;;;;;5.75;4.85;;;32.10;99.90;;;;;;2603693;54;20027;31
2023/08/25 08:13:21;;;;;;;6.78;4.72;;;32.20;99.90;;;;;;2603409;54;20823;31
2023/08/25 08:15:55;;;;;;;8.30;4.90;;;32.30;99.90;;;;;;2621906;46;20100;31
2023/08/25 08:18:30;;;;;;;9.55;4.72;;;32.50;99.90;;;;;;2622203;46;20097;31
2023/08/25 08:21:05;;;;;;;13.50;5.60;;;32.50;99.90;;;;;;2603522;54;20025;31
2023/08/25 08:23:41;;;;;;;9.95;4.47;;;32.70;99.90;;;;;;2621814;46;20057;31
2023/08/25 08:26:17;;;;;;;7.05;4.50;;;32.80;99.90;;;;;;2603495;54;20030;31
2023/08/25 08:28:55;;;;;;;6.82;4.40;;;33.00;99.90;;;;;;2603461;54;20103;31
2023/08/25 08:31:30;;;;;;;7.82;4.47;;;33.10;99.90;;;;;;2603333;54;20052;31
2023/08/25 08:34:05;;;;;;;6.95;4.15;;;33.10;99.90;;;;;;2622337;46;20030;31
2023/08/25 08:36:39;;;;;;;10.90;4.70;;;33.20;99.90;;;;;;2621685;46;20845;31
2023/08/25 08:39:14;;;;;;;5.80;4.47;;;33.30;99.90;;;;;;2603627;54;20026;31
2023/08/25 08:41:49;;;;;;;7.70;4.10;;;33.40;99.90;;;;;;2603585;54;19941;31
2023/08/25 08:44:27;;;;;;;10.30;4.47;;;33.50;99.90;;;;;;2621978;46;20033;31
2023/08/25 08:47:01;;;;;;;10.35;4.30;;;33.50;99.90;;;;;;2621752;46;20812;31
2023/08/25 08:49:35;;;;;;;6.80;4.30;;;33.60;99.90;;;;;;2603543;54;20050;31
2023/08/25 08:52:10;;;;;;;5.60;4.00;;;33.70;99.90;;;;;;2603273;54;20026;31
2023/08/25 08:54:45;;;;;;;5.70;4.05;;;33.90;99.90;;;;;;2603652;54;20903;31
2023/08/25 08:57:20;;;;;;;5.60;3.20;;;34.10;99.90;;;;;;2603582;54;20030;31
2023/08/25 09:00:03;;;;;;;6.15;3.70;;;34.30;99.90;;;;;;2603658;54;20030;31
2023/08/25 09:02:38;;;;;;;8.07;3.60;;;34.40;99.90;;;;;;2603829;54;20058;31
2023/08/25 09:05:14;;;;;;;5.25;3.10;;;34.50;99.90;;;;;;2603516;54;20033;31
2023/08/25 09:07:50;;;;;;;4.57;3.05;;;34.60;99.90;;;;;;2603475;54;20056;31
2023/08/25 09:10:27;;;;;;;5.80;2.95;;;34.80;99.90;;;;;;2603066;54;20048;31
2023/08/25 09:13:03;;;;;;;6.30;3.60;;;34.90;99.90;;;;;;2603703;54;20089;31
2023/08/25 09:15:40;;;;;;;3.30;2.70;;;34.90;99.90;;;;;;2603551;54;20890;31
2023/08/25 09:18:15;;;;;;;6.55;3.00;;;35.00;99.10;;;;;;2603614;54;20030;31
2023/08/25 09:20:50;;;;;;;;;;;35.00;99.00;;;;;;2622293;46;20045;31
2023/08/25 09:23:24;;;;;;;4.28;3.22;;;35.10;97.60;;;;;;2603554;54;21546;31
2023/08/25 09:25:59;;;;;;;7.10;3.10;;;35.20;98.10;;;;;;2603363;54;20026;31
2023/08/25 09:28:39;;;;;;;6.18;2.83;;;35.20;97.00;;;;;;2603446;54;20058;31
2023/08/25 09:31:25;;;;;;;4.55;2.75;;;35.20;95.90;;;;;;2621534;46;20888;31
2023/08/25 09:34:02;;;;;;;7.82;3.13;;;35.20;97.20;;;;;;2603222;54;20935;31
2023/08/25 09:36:36;;;;;;;6.15;2.80;;;35.30;96.80;;;;;;2603316;54;20778;31
2023/08/25 09:39:11;;;;;;;7.65;3.22;;;35.30;95.50;;;;;;2603419;54;20033;31
2023/08/25 09:41:46;;;;;;;;;;;35.30;95.90;;;;;;2603676;54;20030;31
2023/08/25 09:44:20;;;;;;;8.02;3.53;;;35.30;95.90;;;;;;2621918;46;19934;31
2023/08/25 09:46:58;;;;;;;5.57;3.03;;;35.30;96.30;;;;;;2621696;46;20033;31
2023/08/25 09:49:40;;;;;;;5.47;3.30;;;35.20;95.50;;;;;;2621613;46;20026;31
2023/08/25 09:52:15;;;;;;;6.35;3.20;;;35.30;96.20;;;;;;2603438;54;20042;31
2023/08/25 09:54:49;;;;;;;5.00;3.08;;;35.30;94.90;;;;;;2701542;39;21515;31
2023/08/25 09:57:26;;;;;;;5.18;3.50;;;35.20;95.30;;;;;;2603374;54;20033;31
2023/08/25 10:00:00;;;;;;;4.50;2.88;;;35.20;97.90;;;;;;2603411;54;19935;31
2023/08/25 10:02:47;;;;;;;4.95;2.90;;;35.20;96.20;;;;;;2603465;54;20853;31
2023/08/25 10:05:24;;;;;;;7.40;3.55;;;35.30;98.20;;;;;;2603328;54;20909;31
2023/08/25 10:08:00;;;;;;;5.63;3.03;;;35.30;97.00;;;;;;2603212;54;20112;31
2023/08/25 10:10:37;;;;;;;6.40;3.30;;;35.70;96.30;;;;;;2621650;47;20041;31
2023/08/25 10:13:11;;;;;;;6.85;3.13;;;35.60;94.90;;;;;;2603230;54;20049;31
2023/08/25 10:15:46;;;;;;;4.65;2.80;;;35.60;95.40;;;;;;2603062;54;20931;31
2023/08/25 10:18:23;;;;;;;7.38;3.50;;;35.70;95.80;;;;;;2603129;54;20041;31
2023/08/25 10:20:57;;;;;;;4.10;3.10;;;35.60;94.20;;;;;;2603342;54;20179;31
2023/08/25 10:23:32;;;;;;;3.50;2.33;;;35.50;94.70;;;;;;2622371;47;20055;31
2023/08/25 10:26:07;;;;;;;4.13;2.75;;;35.30;94.60;;;;;;2603798;54;20823;31
2023/08/25 10:28:42;;;;;;;7.57;3.00;;;35.10;95.90;;;;;;2603944;54;20154;31
2023/08/25 10:31:17;;;;;;;3.55;2.90;;;34.80;94.50;;;;;;2622234;46;20049;31
2023/08/25 10:33:55;;;;;;;;;;;34.60;96.10;;;;;;2604195;54;20848;31
2023/08/25 10:36:29;;;;;;;4.55;2.70;;;34.40;95.80;;;;;;2604043;54;19934;31
2023/08/25 10:39:10;;;;;;;;;;;34.30;96.90;;;;;;2622850;46;20034;31
2023/08/25 10:41:45;;;;;;;5.45;2.80;;;34.20;97.80;;;;;;2603923;54;20035;31
2023/08/25 10:44:23;;;;;;;6.35;3.55;;;34.10;96.70;;;;;;2603905;54;20023;31
2023/08/25 10:47:02;;;;;;;12.90;3.55;;;34.10;95.80;;;;;;2604039;54;20767;31
2023/08/25 10:49:42;;;;;;;9.30;3.40;;;34.20;96.10;;;;;;2603779;54;20855;31
2023/08/25 10:52:18;;;;;;;4.30;2.40;;;34.20;96.50;;;;;;2603858;54;20037;31
2023/08/25 10:54:53;;;;;;;5.57;3.30;;;34.30;96.70;;;;;;2603992;54;20026;31
2023/08/25 10:57:44;;;;;;;6.20;2.90;;;34.40;95.00;;;;;;2622475;46;20091;31
2023/08/25 11:02:48;;;;;;;6.60;2.77;;;34.40;94.60;;;;;;2621985;46;20876;31
2023/08/25 11:05:50;;;;;;;10.25;2.78;;;34.40;95.70;;;;;;2622376;46;20026;31
2023/08/25 11:08:28;;;;;;;5.00;2.67;;;34.60;95.90;;;;;;2603629;54;20092;31
2023/08/25 11:11:24;;;;;;;5.20;2.35;;;34.60;95.60;;;;;;2622544;46;20026;31
2023/08/25 11:13:58;;;;;;;5.50;2.60;;;34.60;95.10;;;;;;2619868;46;20034;31
2023/08/25 11:16:33;;;;;;;5.60;2.50;;;34.70;96.80;;;;;;2622481;46;20060;31
2023/08/25 11:19:08;;;;;;;;;;;34.60;96.40;;;;;;2622165;46;20096;31
2023/08/25 11:21:46;;;;;;;6.13;2.38;;;34.60;94.90;;;;;;2603082;54;19942;31
2023/08/25 11:24:25;;;;;;;3.75;2.00;;;34.70;95.30;;;;;;2603984;54;20080;31
2023/08/25 11:27:06;;;;;;;4.22;2.22;;;34.70;95.20;;;;;;2603905;54;20036;31
2023/08/25 11:29:44;;;;;;;5.07;2.38;;;34.70;94.60;;;;;;2603728;54;20030;31
2023/08/25 11:32:20;;;;;;;9.10;2.77;;;34.70;95.80;;;;;;2603815;54;20120;31
2023/08/25 11:34:55;;;;;;;5.43;2.45;;;34.70;96.60;;;;;;2603508;54;20119;31
2023/08/25 11:37:32;;;;;;;5.10;2.25;;;34.80;96.00;;;;;;2603773;54;20943;31
2023/08/25 11:40:09;;;;;;;7.10;2.30;;;34.70;96.10;;;;;;2603809;54;20108;31
2023/08/25 11:42:43;;;;;;;5.65;2.00;;;34.70;96.20;;;;;;2721038;39;21587;31
2023/08/25 11:45:19;;;;;;;7.93;2.22;;;34.60;95.30;;;;;;2603848;54;20969;31
2023/08/25 11:47:53;;;;;;;4.20;2.20;;;34.60;95.20;;;;;;2603667;54;20135;31
2023/08/25 11:50:28;;;;;;;3.80;2.30;;;34.40;96.00;;;;;;2603932;54;20056;31
2023/08/25 11:53:07;;;;;;;5.45;2.25;;;34.40;96.00;;;;;;2603742;54;20022;31
2023/08/25 11:55:42;;;;;;;5.40;2.83;;;34.40;95.50;;;;;;2622171;46;20044;31
2023/08/25 11:58:18;;;;;;;6.97;2.60;;;34.30;96.70;;;;;;2603622;54;20959;31
2023/08/25 12:00:53;;;;;;;6.05;2.45;;;34.30;97.10;;;;;;2702020;39;20463;31
2023/08/25 12:03:27;;;;;;;4.20;2.20;;;34.30;96.50;;;;;;2621944;46;20048;31
2023/08/25 12:06:05;;;;;;;6.28;2.00;;;34.30;96.20;;;;;;2603689;54;20038;31
2023/08/25 12:08:42;;;;;;;6.28;2.25;;;34.30;97.00;;;;;;2621949;46;20038;31
2023/08/25 12:11:17;;;;;;;4.15;2.13;;;34.10;95.10;;;;;;2603741;54;20866;31
2023/08/25 12:13:52;;;;;;;;;;;34.10;96.40;;;;;;2603834;54;20077;31
2023/08/25 12:16:26;;;;;;;3.65;1.98;;;34.00;95.40;;;;;;2622266;46;20012;31
2023/08/25 12:19:04;;;;;;;5.60;2.28;;;34.00;96.10;;;;;;2603764;54;20038;31
2023/08/25 12:21:38;;;;;;;4.70;2.60;;;34.00;95.80;;;;;;2622006;46;20026;31
2023/08/25 12:24:19;;;;;;;4.00;2.20;;;33.90;94.90;;;;;;2603506;54;20234;31
2023/08/25 12:26:54;;;;;;;6.07;1.92;;;33.80;94.60;;;;;;2622231;46;20041;31
2023/08/25 12:29:28;;;;;;;4.15;2.10;;;33.80;95.70;;;;;;2603823;54;20085;31
2023/08/25 12:32:04;;;;;;;3.80;2.10;;;33.70;95.60;;;;;;2622116;46;20030;31
2023/08/25 12:34:38;;;;;;;4.53;1.95;;;33.60;95.70;;;;;;2603383;54;20085;31
2023/08/25 12:37:16;;;;;;;4.25;2.53;;;33.60;95.60;;;;;;2603525;54;20033;31
2023/08/25 12:39:54;;;;;;;5.00;2.50;;;33.60;96.30;;;;;;2603379;54;20877;31
2023/08/25 12:42:28;;;;;;;7.40;2.40;;;33.60;96.00;;;;;;2603519;54;20038;31
2023/08/25 12:45:02;;;;;;;3.97;2.40;;;33.50;95.40;;;;;;2603445;54;20935;31
2023/08/25 12:47:37;;;;;;;5.67;2.60;;;33.40;96.70;;;;;;2603540;54;20031;31
2023/08/25 12:50:12;;;;;;;;;;;33.40;97.00;;;;;;2603795;54;20028;31
2023/08/25 12:52:46;;;;;;;4.70;2.33;;;33.40;98.70;;;;;;2603606;54;19941;31
2023/08/25 12:55:23;;;;;;;;;;;33.40;98.10;;;;;;2603911;54;20029;31
2023/08/25 12:57:58;;;;;;;3.83;2.75;;;33.30;97.60;;;;;;2603317;54;20713;31
2023/08/25 13:00:32;;;;;;;5.30;2.90;;;33.30;98.00;;;;;;2603510;54;20934;31
2023/08/25 13:03:08;;;;;;;4.60;2.88;;;33.30;98.40;;;;;;2603566;54;20882;31
2023/08/25 13:05:43;;;;;;;5.80;2.60;;;33.30;96.40;;;;;;2603587;54;20085;31
2023/08/25 13:08:18;;;;;;;5.70;2.70;;;33.20;97.80;;;;;;2603382;54;21063;31
2023/08/25 13:10:56;;;;;;;6.35;2.75;;;33.30;98.40;;;;;;2603181;54;20029;31
2023/08/25 13:13:30;;;;;;;4.05;2.20;;;33.30;98.60;;;;;;2603202;54;20029;31
2023/08/25 13:16:08;;;;;;;4.05;2.05;;;33.30;97.40;;;;;;2603389;54;20033;31
2023/08/25 13:18:44;;;;;;;4.97;2.70;;;33.30;97.80;;;;;;2603489;54;20931;31
2023/08/25 13:21:18;;;;;;;3.35;2.30;;;33.30;97.20;;;;;;2603480;54;20026;31
2023/08/25 13:23:53;;;;;;;4.88;2.47;;;33.20;97.30;;;;;;2622027;46;20027;31
2023/08/25 13:26:44;;;;;;;5.60;2.60;;;33.20;97.30;;;;;;2603143;54;20030;31
2023/08/25 13:29:19;;;;;;;4.13;2.50;;;33.10;97.10;;;;;;2603310;54;20782;31
2023/08/25 13:31:54;;;;;;;5.07;2.90;;;33.10;98.10;;;;;;2603333;54;20115;31
2023/08/25 13:34:28;;;;;;;4.57;1.95;;;33.10;98.10;;;;;;2621642;46;20032;31
2023/08/25 13:37:04;;;;;;;6.78;2.10;;;33.10;98.90;;;;;;2621625;46;20023;31
2023/08/25 13:39:40;;;;;;;4.28;2.20;;;33.00;99.40;;;;;;2603325;54;20107;31
2023/08/25 13:42:18;;;;;;;4.88;2.10;;;33.00;99.00;;;;;;2603194;54;20042;31
2023/08/25 13:44:52;;;;;;;4.55;2.15;;;33.00;98.50;;;;;;2603404;54;20030;31